Loxahatchee Groves, FL

5:27 AM EST on November 22, 2014 (GMT -0500)
Palm Beach International | Change Station
CLOSE
Current Station
Airport
Location: West Palm Beach,
Elevation: 20 ft
Nearby Weather Stations

Elev 20 ft 26.68 °N, 80.10 °W | Updated 34 minutes ago

Overcast
Overcast
76 °F
Feels Like 76 °F
N
20
Wind Variable Wind from East
Gusts 29 mph

Today
High -- | Low -- °F
--% Chance of Precip.
Yesterday
High -- | Low -- °F
Precip. -- in
6:45 AM 5:28 PM
Waning Crescent, 0% visible
Pressure 30.16 in
Visibility 10.0 miles
Clouds Few 2500 ft
Mostly Cloudy 3200 ft
Dew Point 66 °F
Humidity 71%
Rainfall 0.01 in
Snow Depth Not available.
UV 0 out of 12
Pollen 4.40 out of 12
Air Quality Not available.
Flu Activity Not available.
METAR KPBI 220953Z 09017G25KT 10SM FEW025 BKN032 24/19 A3016 RMK AO2 PK WND 08026/0915 SLP213 T02440189

More Conditions Fewer Conditions

Pressure 30.16 in
Visibility 10.0 miles
Clouds Few 2500 ft
Mostly Cloudy 3200 ft
Dew Point 66 °F
Humidity 71%
Rainfall 0.01 in
Snow Depth Not available.
UV 0 out of 12
Pollen 4.40 out of 12
Air Quality Not available.
Flu Activity Not available.
METAR KPBI 220953Z 09017G25KT 10SM FEW025 BKN032 24/19 A3016 RMK AO2 PK WND 08026/0915 SLP213 T02440189

More Conditions Fewer Conditions

10-Day Weather Forecast

Almanac

Astronomy

Nov. 22, 2014 Rise Set
Actual Time
Civil Twilight
Nautical Twilight
Astronomical Twilight
Moon
Length of Visible Light
Length of Day
Tomorrow will be .
, % of the Moon is Illuminated

Today's Extremes

State Highs State Lows

Community

WunderPhotos

Upload Photos

1,772,799 photos uploaded!

WunderBlogs® & News

Nearby

Air Quality

  Air Quality AQ Index Pollutant
Not available.

Snow Depth

Station Depth Elevation

Earthquake Activity

City Distance Mag. Time & Date
Minimum magnitude displayed is 2.5.

Coastal Water Temperatures

Place Temperature

Nearby Weather Stations